Time;durP1;ratioP1;P1;durP2;ratioP2;P2;SDS_P1;SDS_P2;PMS_P1;PMS_P2;Temp;Humidity;BMP_temperature;BMP_pressure;BME280_temperature;BME280_humidity;BME280_pressure;Samples;Min_cycle;Max_cycle;Signal;HPM_P1;HPM_P2
2022/01/01 00:00:12;;;;;;;1999.90;546.65;;;;;;;1.32;91.45;98055.69;10417765;28;20063;-57
2022/01/01 00:05:13;;;;;;;1999.90;557.03;;;;;;;1.29;91.15;98064.91;10419732;28;20118;-57
2022/01/01 00:10:12;;;;;;;1999.90;549.25;;;;;;;1.33;91.30;98065.09;10418659;28;20519;-57
2022/01/01 00:15:11;;;;;;;1999.90;554.88;;;;;;;1.32;90.95;98060.81;10417896;28;20559;-57
2022/01/01 00:20:11;;;;;;;1999.90;591.97;;;;;;;1.26;91.26;98032.44;10417345;28;20512;-57
2022/01/01 00:25:13;;;;;;;1999.90;563.88;;;;;;;1.30;90.90;98041.13;10417682;28;20052;-57
2022/01/01 00:30:12;;;;;;;1950.88;508.30;;;;;;;1.15;91.26;98043.91;10415512;28;20068;-57
2022/01/01 00:35:11;;;;;;;1999.90;557.38;;;;;;;1.04;91.98;98035.81;10415568;28;20435;-57
2022/01/01 00:40:10;;;;;;;1819.00;483.88;;;;;;;0.94;91.99;98032.81;10416881;28;20056;-57
2022/01/01 00:45:09;;;;;;;1796.65;468.02;;;;;;;0.91;92.02;98036.13;10416921;28;20541;-58
2022/01/01 00:50:08;;;;;;;;;;;;;;;0.83;92.10;98040.06;10416955;28;20040;-57
2022/01/01 00:55:08;;;;;;;1999.90;506.48;;;;;;;0.81;91.99;98045.09;10415560;28;19912;-57
2022/01/01 01:00:08;;;;;;;1916.85;484.88;;;;;;;0.77;92.02;98027.88;10413429;28;20087;-58
2022/01/01 01:05:07;;;;;;;1329.88;444.60;;;;;;;0.88;92.04;98024.09;10414867;28;20063;-57
2022/01/01 01:10:08;;;;;;;1999.90;545.78;;;;;;;0.93;92.41;98018.31;10414234;28;20064;-57
2022/01/01 01:15:10;;;;;;;1999.90;525.55;;;;;;;0.81;92.14;98018.69;10412838;28;20071;-57
2022/01/01 01:20:10;;;;;;;1777.88;481.42;;;;;;;0.78;92.13;98038.97;10412094;28;20108;-57
2022/01/01 01:25:09;;;;;;;1999.90;547.85;;;;;;;0.87;92.25;98024.03;10412191;28;20509;-58
2022/01/01 01:30:12;;;;;;;1532.65;446.23;;;;;;;0.92;91.95;98022.56;10413044;28;20071;-58
2022/01/01 01:35:12;;;;;;;1089.07;386.13;;;;;;;0.98;92.05;98025.34;10409278;28;20215;-57
2022/01/01 01:40:12;;;;;;;1618.75;379.73;;;;;;;0.95;91.93;98022.66;10414449;28;20068;-57
2022/01/01 01:45:16;;;;;;;1612.85;399.70;;;;;;;0.97;92.01;98020.19;10415086;28;20056;-57
2022/01/01 01:50:16;;;;;;;1964.40;445.42;;;;;;;0.88;92.20;98023.22;10415891;28;20075;-58
2022/01/01 01:55:16;;;;;;;1976.25;467.02;;;;;;;0.80;92.53;98017.81;10415983;28;20064;-57
2022/01/01 02:00:53;;;;;;;;;;;;;;;0.62;92.09;98023.00;10416105;28;20055;-57
2022/01/01 02:05:45;;;;;;;884.30;309.13;;;;;;;0.39;92.52;98036.47;10414681;28;19959;-57
2022/01/01 02:10:48;;;;;;;960.97;306.70;;;;;;;0.19;92.48;98040.69;10414001;28;20078;-57
2022/01/01 02:20:50;;;;;;;703.67;283.92;;;;;;;0.22;92.32;98010.22;10423518;28;20059;-57
2022/01/01 02:25:50;;;;;;;1271.22;353.60;;;;;;;0.16;92.43;98000.59;10423322;28;20060;-57
2022/01/01 02:30:50;;;;;;;1668.10;405.33;;;;;;;0.17;92.48;97996.38;10422536;28;20087;-57
2022/01/01 02:35:49;;;;;;;953.58;318.38;;;;;;;0.29;92.40;98002.03;10422909;28;20436;-57
2022/01/01 02:40:48;;;;;;;1037.05;299.75;;;;;;;0.29;92.41;97994.38;10422694;28;20539;-57
2022/01/01 02:45:49;;;;;;;963.30;318.83;;;;;;;0.17;92.79;97997.25;10423081;28;20449;-57
2022/01/01 02:50:51;;;;;;;636.33;263.77;;;;;;;0.08;92.91;98001.06;10421945;28;20072;-58
2022/01/01 02:55:50;;;;;;;666.97;286.15;;;;;;;0.11;93.03;97993.56;10422549;28;20071;-58
2022/01/01 03:00:49;;;;;;;930.30;321.83;;;;;;;0.11;92.86;97994.44;10422458;28;20035;-58
2022/01/01 03:05:48;;;;;;;910.92;308.98;;;;;;;-0.10;93.26;97984.16;10422266;28;20033;-57
2022/01/01 03:10:49;;;;;;;931.10;314.38;;;;;;;-0.17;93.15;97987.25;10421559;28;20037;-58
2022/01/01 03:15:48;;;;;;;957.58;318.38;;;;;;;-0.19;92.63;97981.19;10421212;28;20071;-57
2022/01/01 03:20:47;;;;;;;1160.18;337.88;;;;;;;-0.17;92.79;97984.69;10421221;28;20060;-57
2022/01/01 03:25:46;;;;;;;821.13;303.52;;;;;;;-0.28;92.48;97973.13;10421215;28;20093;-58
2022/01/01 03:30:45;;;;;;;1507.85;384.08;;;;;;;-0.16;92.71;97976.22;10419191;28;20048;-57
2022/01/01 03:35:44;;;;;;;1721.20;398.52;;;;;;;-0.08;92.42;97971.47;10421015;28;20024;-57
2022/01/01 03:40:43;;;;;;;911.17;318.85;;;;;;;-0.16;92.66;97956.72;10420883;28;20055;-57
2022/01/01 03:45:42;;;;;;;1087.85;342.67;;;;;;;-0.25;92.93;97952.84;10420730;28;20029;-57
2022/01/01 03:50:41;;;;;;;895.15;309.75;;;;;;;-0.16;92.86;97943.97;10420598;28;20043;-58
2022/01/01 03:55:40;;;;;;;1014.97;314.20;;;;;;;-0.13;92.93;97934.66;10420161;28;20592;-57
2022/01/01 04:00:40;;;;;;;848.50;298.52;;;;;;;-0.26;93.50;97929.03;10418347;28;20037;-58
2022/01/01 04:05:41;;;;;;;652.55;240.23;;;;;;;-0.30;93.43;97921.19;10419437;28;20079;-58
2022/01/01 04:10:40;;;;;;;670.28;241.32;;;;;;;-0.23;93.25;97953.81;10419571;28;20457;-57
2022/01/01 04:15:41;;;;;;;650.70;247.85;;;;;;;-0.23;93.19;97970.00;10417826;28;20071;-57
2022/01/01 04:20:45;;;;;;;472.58;215.15;;;;;;;-0.19;93.12;97955.69;10418920;28;20075;-57
2022/01/01 04:25:44;;;;;;;641.65;256.00;;;;;;;-0.06;92.77;97967.31;10419430;28;20486;-58
2022/01/01 04:30:43;;;;;;;606.15;246.65;;;;;;;-0.05;93.17;97959.72;10418458;28;20470;-57
2022/01/01 04:35:42;;;;;;;548.88;230.15;;;;;;;-0.06;92.82;97958.00;10418462;28;20067;-57
2022/01/01 04:40:41;;;;;;;579.38;231.40;;;;;;;-0.32;93.48;97943.19;10417391;28;20071;-57
2022/01/01 04:45:40;;;;;;;773.45;259.08;;;;;;;-0.30;93.88;97954.34;10418405;28;20029;-57
2022/01/01 04:50:39;;;;;;;607.13;225.88;;;;;;;-0.33;93.50;97959.31;10417867;28;20045;-57
2022/01/01 04:55:38;;;;;;;583.60;215.05;;;;;;;-0.45;93.24;97968.16;10417492;28;20043;-57
2022/01/01 05:00:37;;;;;;;705.90;236.35;;;;;;;-0.39;93.31;97970.13;10417239;28;20028;-57
2022/01/01 05:05:36;;;;;;;650.30;262.80;;;;;;;-0.43;93.58;97975.88;10416030;28;20035;-58
2022/01/01 05:10:35;;;;;;;465.25;185.75;;;;;;;-0.39;93.15;97978.63;10417035;28;20040;-57
2022/01/01 05:15:34;;;;;;;547.85;204.30;;;;;;;-0.22;93.01;97981.06;10416389;28;20030;-57
2022/01/01 05:20:33;;;;;;;448.27;186.43;;;;;;;-0.21;92.99;98000.66;10416061;28;20079;-57
2022/01/01 05:25:32;;;;;;;469.77;197.57;;;;;;;-0.13;92.92;97994.22;10415925;28;20025;-57
2022/01/01 05:30:31;;;;;;;490.63;202.88;;;;;;;-0.00;92.76;97993.09;10416511;28;20076;-58
2022/01/01 05:35:30;;;;;;;505.52;214.00;;;;;;;0.08;92.42;97989.22;10415828;28;20478;-57
2022/01/01 05:40:30;;;;;;;;;;;;;;;0.12;92.71;97968.09;10416832;28;20820;-57
2022/01/01 05:45:29;;;;;;;372.37;165.97;;;;;;;0.22;92.69;97979.59;10415848;28;20417;-57
2022/01/01 05:50:28;;;;;;;514.40;231.57;;;;;;;0.33;92.76;97934.97;10415848;28;20286;-57
2022/01/01 05:55:27;;;;;;;489.95;221.35;;;;;;;0.04;93.17;98000.94;10415844;28;20036;-57
2022/01/01 06:00:26;;;;;;;498.65;220.27;;;;;;;-0.06;93.29;97988.59;10415130;28;20039;-57
2022/01/01 06:05:26;;;;;;;451.33;202.35;;;;;;;-0.01;93.23;97997.31;10413518;28;20067;-58
2022/01/01 06:10:26;;;;;;;466.38;207.82;;;;;;;0.18;93.16;98008.34;10413523;28;20083;-57
2022/01/01 06:15:25;;;;;;;430.08;194.27;;;;;;;0.18;92.99;98028.75;10415419;28;20068;-58
2022/01/01 06:20:24;;;;;;;437.77;200.40;;;;;;;0.32;92.71;98031.91;10414907;28;20063;-57
2022/01/01 06:25:23;;;;;;;448.50;206.80;;;;;;;0.39;92.42;97999.06;10414662;28;20068;-57
2022/01/01 06:30:22;;;;;;;423.38;204.52;;;;;;;0.47;92.46;98024.91;10413619;28;20435;-57
2022/01/01 06:35:21;;;;;;;444.77;216.57;;;;;;;0.56;92.64;98006.56;10414113;28;20130;-57
2022/01/01 06:40:20;;;;;;;455.40;219.68;;;;;;;0.57;92.82;97992.97;10412443;28;20020;-58
2022/01/01 06:45:19;;;;;;;498.60;246.95;;;;;;;0.56;93.07;98014.22;10412997;28;20696;-57
2022/01/01 06:50:18;;;;;;;424.88;196.45;;;;;;;0.25;93.53;98026.53;10413382;28;21186;-57
2022/01/01 06:55:18;;;;;;;495.15;190.70;;;;;;;0.21;93.09;98032.28;10391614;28;20156;-57
2022/01/01 07:00:17;;;;;;;505.85;200.65;;;;;;;0.43;92.53;98029.03;10420964;28;20067;-57
2022/01/01 07:05:16;;;;;;;405.23;182.88;;;;;;;0.59;92.18;98032.22;10419128;28;20060;-57
2022/01/01 07:10:15;;;;;;;384.58;172.85;;;;;;;0.80;92.23;98028.03;10421694;28;20044;-57
2022/01/01 07:15:17;;;;;;;370.30;184.48;;;;;;;0.87;92.02;98034.25;10421059;28;20119;-57
2022/01/01 07:20:16;;;;;;;385.50;181.60;;;;;;;0.96;91.94;98037.19;10420697;28;20060;-57
2022/01/01 07:25:15;;;;;;;407.98;195.98;;;;;;;0.90;91.72;98045.47;10403042;28;20067;-58
2022/01/01 07:30:14;;;;;;;490.27;262.20;;;;;;;0.98;92.15;98038.13;10432895;28;20079;-57
2022/01/01 07:35:16;;;;;;;494.63;272.90;;;;;;;1.13;91.96;98045.56;10420317;28;20067;-57
2022/01/01 07:40:16;;;;;;;489.35;271.35;;;;;;;1.28;91.95;98024.84;10419209;28;20071;-57
2022/01/01 07:45:16;;;;;;;489.98;266.25;;;;;;;1.58;92.30;98022.59;10419015;28;20064;-57
2022/01/01 07:50:15;;;;;;;469.95;262.98;;;;;;;1.93;92.41;98028.19;10400489;28;20079;-57
2022/01/01 07:55:14;;;;;;;448.85;261.02;;;;;;;2.01;93.56;98021.66;10381475;28;20072;-57
2022/01/01 08:00:14;;;;;;;464.92;269.92;;;;;;;2.25;93.82;98016.53;10396525;28;20056;-57
2022/01/01 08:05:16;;;;;;;452.45;271.35;;;;;;;2.72;93.63;98029.28;10390452;28;20068;-58
2022/01/01 08:10:15;;;;;;;443.23;267.88;;;;;;;3.09;93.87;98005.75;10418938;28;20499;-57
2022/01/01 08:15:14;;;;;;;461.15;281.52;;;;;;;3.49;93.27;98035.22;10413368;28;20484;-57
2022/01/01 08:20:13;;;;;;;445.45;266.92;;;;;;;3.82;93.27;98026.81;10417841;28;20545;-57
2022/01/01 08:25:12;;;;;;;396.60;250.75;;;;;;;4.12;92.78;98036.25;10418409;28;20056;-58
2022/01/01 08:30:14;;;;;;;392.70;242.60;;;;;;;4.35;92.71;98026.63;10407806;28;20080;-57
2022/01/01 08:35:13;;;;;;;373.55;235.57;;;;;;;4.80;92.63;98036.41;10416835;28;20067;-57
2022/01/01 08:40:12;;;;;;;376.00;238.68;;;;;;;5.10;92.79;98039.78;10408089;28;20109;-58
2022/01/01 08:45:11;;;;;;;328.42;209.20;;;;;;;5.25;91.94;98025.56;10413699;28;20509;-57
2022/01/01 08:50:10;;;;;;;;;;;;;;;5.45;91.75;98033.78;10417029;28;20451;-58
2022/01/01 08:55:11;;;;;;;289.35;181.73;;;;;;;5.65;91.07;98041.94;10413860;28;19931;-58
2022/01/01 09:00:11;;;;;;;258.45;165.25;;;;;;;5.96;90.95;98044.38;10412592;28;20052;-58
2022/01/01 09:05:11;;;;;;;191.45;110.97;;;;;;;5.98;89.45;98047.88;10415816;28;20440;-57
2022/01/01 09:10:10;;;;;;;165.93;108.95;;;;;;;5.70;90.18;97999.19;10400832;28;20067;-58
2022/01/01 09:15:09;;;;;;;161.27;106.65;;;;;;;6.27;90.21;98034.72;10413018;28;20082;-58
2022/01/01 09:20:08;;;;;;;141.65;92.38;;;;;;;6.61;89.60;98031.13;10408756;28;20071;-58
2022/01/01 09:25:07;;;;;;;;;;;;;;;6.99;87.84;98056.75;10412911;28;20064;-58
2022/01/01 09:30:07;;;;;;;107.60;71.38;;;;;;;7.34;87.57;98063.38;10411917;28;20026;-58
2022/01/01 09:35:06;;;;;;;104.68;73.65;;;;;;;7.60;86.44;98046.59;10412560;28;20606;-58
2022/01/01 09:40:05;;;;;;;66.28;47.60;;;;;;;7.80;85.51;98025.34;10413447;28;20446;-58
2022/01/01 09:45:06;;;;;;;53.72;41.42;;;;;;;7.90;83.37;98032.41;10410008;28;20610;-58
2022/01/01 09:50:06;;;;;;;62.92;48.47;;;;;;;8.15;83.62;98049.09;10414624;28;20059;-58
2022/01/01 09:55:06;;;;;;;47.10;35.63;;;;;;;7.98;82.36;98053.19;10415784;28;20052;-58
2022/01/01 10:00:06;;;;;;;41.17;31.65;;;;;;;8.01;82.48;98056.69;10414799;28;20052;-58
2022/01/01 10:05:06;;;;;;;45.88;32.00;;;;;;;8.13;82.06;98074.09;10414788;28;20495;-58
2022/01/01 10:10:25;;;;;;;39.00;28.38;;;;;;;7.98;81.72;98066.97;10414631;28;20052;-58
2022/01/01 10:15:24;;;;;;;53.88;38.97;;;;;;;8.15;81.96;98066.34;10410165;28;20519;-58
2022/01/01 10:20:23;;;;;;;42.33;30.70;;;;;;;8.40;81.85;98067.53;10414663;28;20074;-58
2022/01/01 10:30:43;;;;;;;64.82;45.50;;;;;;;8.72;81.58;98035.16;10414694;28;20076;-58
2022/01/01 10:35:46;;;;;;;84.00;57.38;;;;;;;8.94;81.22;98020.69;10414519;28;20472;-58
2022/01/01 10:40:45;;;;;;;84.05;64.85;;;;;;;9.01;81.62;97987.97;10421125;28;20064;-58
2022/01/01 10:45:47;;;;;;;95.95;71.75;;;;;;;9.18;80.91;97985.53;10416987;28;20082;-58
2022/01/01 10:50:48;;;;;;;116.40;88.88;;;;;;;9.34;81.37;97987.41;10422457;28;20071;-58
2022/01/01 10:55:50;;;;;;;110.63;88.32;;;;;;;9.33;80.90;97975.34;10421550;28;20067;-58
2022/01/01 11:00:50;;;;;;;101.45;78.75;;;;;;;9.33;81.65;97966.72;10421521;28;20067;-58
2022/01/01 11:05:51;;;;;;;98.97;77.90;;;;;;;9.24;81.83;97951.94;10404886;28;20507;-56
2022/01/01 11:10:50;;;;;;;112.85;88.60;;;;;;;9.35;81.80;97959.81;10380875;28;20072;-58
2022/01/01 11:15:51;;;;;;;125.32;93.82;;;;;;;9.55;81.70;97945.25;10393507;28;20075;-58
2022/01/01 11:20:50;;;;;;;135.93;103.80;;;;;;;9.71;81.12;97948.81;10421009;28;20079;-58
2022/01/01 11:25:51;;;;;;;89.50;67.47;;;;;;;9.65;80.98;97943.59;10419702;28;20060;-58
2022/01/01 11:31:08;;;;;;;88.68;64.65;;;;;;;9.43;81.15;97958.13;10419229;28;20083;-59
2022/01/01 11:36:18;;;;;;;66.95;53.22;;;;;;;9.09;81.34;97934.56;10417732;28;20068;-58
2022/01/01 11:41:18;;;;;;;66.25;52.00;;;;;;;9.02;81.83;97978.47;10420053;28;20068;-58
2022/01/01 11:46:22;;;;;;;56.58;43.35;;;;;;;9.05;81.25;97994.06;10415200;28;20071;-58
2022/01/01 11:51:52;;;;;;;41.97;31.70;;;;;;;9.13;81.11;98007.94;10419269;28;20068;-58
2022/01/01 11:56:51;;;;;;;36.28;28.38;;;;;;;9.25;80.98;98022.69;10419425;28;20059;-58
2022/01/01 12:01:52;;;;;;;37.28;28.15;;;;;;;9.18;81.06;98021.78;10419630;28;20082;-58
2022/01/01 12:06:58;;;;;;;36.53;25.70;;;;;;;9.13;81.02;98020.88;10418831;28;20059;-58
2022/01/01 12:11:59;;;;;;;46.80;37.08;;;;;;;9.08;82.21;98020.84;10419599;28;20060;-58
2022/01/01 12:17:02;;;;;;;59.92;44.00;;;;;;;8.81;82.84;97998.16;10414763;28;20052;-58
2022/01/01 12:22:07;;;;;;;60.28;47.45;;;;;;;8.81;83.61;97999.84;10418898;28;20119;-56
2022/01/01 12:27:11;;;;;;;47.53;36.85;;;;;;;8.71;84.28;97993.72;10418647;28;20052;-58
2022/01/01 12:32:10;;;;;;;47.22;34.80;;;;;;;8.78;84.47;98000.69;10417892;28;20068;-58
2022/01/01 12:37:13;;;;;;;34.47;26.88;;;;;;;8.84;84.37;97987.84;10416251;28;20070;-58
2022/01/01 12:42:30;;;;;;;36.72;27.00;;;;;;;8.85;85.01;97986.09;10417031;28;20064;-58
2022/01/01 12:47:30;;;;;;;46.13;31.67;;;;;;;8.93;85.11;97990.50;10411690;28;20063;-58
2022/01/01 12:52:29;;;;;;;;;;;;;;;9.01;86.06;97993.16;10415888;28;20480;-58
2022/01/01 12:57:28;;;;;;;49.60;37.72;;;;;;;9.14;86.34;97988.97;10415684;28;20001;-58
2022/01/01 13:02:27;;;;;;;40.38;31.23;;;;;;;9.19;86.33;97992.47;10415331;28;20086;-58
2022/01/01 13:07:27;;;;;;;45.65;34.92;;;;;;;9.28;86.94;97982.22;10409281;28;20033;-58
2022/01/01 13:12:31;;;;;;;37.63;26.70;;;;;;;9.37;86.46;97991.75;10374318;28;20102;-58
2022/01/01 13:17:30;;;;;;;62.10;49.95;;;;;;;9.44;86.43;97987.47;10373166;28;20076;-58
2022/01/01 13:22:30;;;;;;;62.17;49.22;;;;;;;9.51;86.21;97991.84;10374959;28;20128;-58
2022/01/01 13:27:29;;;;;;;58.50;44.30;;;;;;;9.53;86.29;97995.31;10373755;28;20069;-58
2022/01/01 13:32:28;;;;;;;54.35;42.97;;;;;;;9.48;86.03;97989.25;10373147;28;20037;-58
2022/01/01 13:37:27;;;;;;;52.22;41.70;;;;;;;9.52;85.96;98009.16;10373487;28;20076;-58
2022/01/01 13:42:26;;;;;;;91.53;71.95;;;;;;;9.47;86.83;98021.19;10373928;28;20064;-58
2022/01/01 13:47:29;;;;;;;88.40;67.68;;;;;;;9.56;85.95;98010.91;10371593;28;20033;-58
2022/01/01 13:52:35;;;;;;;66.18;49.55;;;;;;;9.61;85.97;98016.13;10371281;28;20068;-58
2022/01/01 13:57:39;;;;;;;87.13;67.90;;;;;;;9.38;86.69;98016.81;10372044;28;20053;-58
2022/01/01 14:02:38;;;;;;;102.82;73.78;;;;;;;9.47;86.52;98016.88;10372367;28;20715;-57
2022/01/01 14:07:37;;;;;;;60.42;46.17;;;;;;;9.55;86.69;98020.38;10371412;28;20013;-58
2022/01/01 14:12:39;;;;;;;59.20;44.08;;;;;;;9.60;85.75;98030.78;10373858;28;20079;-58
2022/01/01 14:18:07;;;;;;;61.13;45.95;;;;;;;9.65;85.75;98031.72;10380615;28;20060;-58
2022/01/01 14:23:06;;;;;;;54.33;40.05;;;;;;;9.63;86.12;98027.34;10376130;28;20079;-58
2022/01/01 14:28:08;;;;;;;49.58;38.17;;;;;;;9.33;85.86;97985.69;10379208;28;20041;-57
2022/01/01 14:33:08;;;;;;;41.40;31.27;;;;;;;9.50;85.64;98029.00;10379037;28;20071;-58
2022/01/01 14:38:07;;;;;;;47.97;36.95;;;;;;;9.51;85.54;98054.03;10376102;28;20063;-58
2022/01/01 14:43:07;;;;;;;83.78;62.45;;;;;;;9.48;85.23;98041.06;10377245;28;20067;-58
2022/01/01 14:48:05;;;;;;;;;;;;;;;9.39;85.77;98053.94;10379176;28;20498;-58
2022/01/01 14:53:08;;;;;;;101.50;78.53;;;;;;;9.42;85.95;98061.72;10379230;28;20425;-58
2022/01/01 14:58:13;;;;;;;94.72;72.28;;;;;;;9.39;86.07;98056.53;10376806;28;20056;-58
2022/01/01 15:03:12;;;;;;;107.05;80.03;;;;;;;9.37;85.79;98071.19;10377148;28;20053;-58
2022/01/01 15:08:15;;;;;;;124.07;94.63;;;;;;;9.31;85.99;98077.19;10379270;28;20478;-58
2022/01/01 15:13:16;;;;;;;157.80;123.15;;;;;;;9.09;86.73;98078.66;10379444;28;20057;-58
2022/01/01 15:18:17;;;;;;;147.30;112.50;;;;;;;9.05;86.72;98082.94;10372319;28;20475;-57
2022/01/01 15:23:40;;;;;;;149.85;112.85;;;;;;;8.97;87.20;98075.94;10377848;28;20056;-58
2022/01/01 15:28:40;;;;;;;115.60;87.43;;;;;;;8.92;87.14;98081.94;10377624;28;20068;-58
2022/01/01 15:33:42;;;;;;;160.52;113.80;;;;;;;8.57;87.50;98042.72;10377330;28;20057;-57
2022/01/01 15:38:48;;;;;;;158.90;114.80;;;;;;;8.67;87.37;98062.69;10377032;28;20071;-57
2022/01/01 15:43:49;;;;;;;113.45;82.68;;;;;;;8.70;86.79;98090.31;10375587;28;20067;-57
2022/01/01 15:48:49;;;;;;;109.25;82.68;;;;;;;8.51;87.50;98090.09;10377808;28;20067;-57
2022/01/01 15:53:48;;;;;;;135.18;102.30;;;;;;;8.32;87.77;98106.22;10377692;28;20060;-57
2022/01/01 15:58:48;;;;;;;138.88;102.32;;;;;;;8.24;87.56;98100.06;10376973;28;20056;-57
2022/01/01 16:03:59;;;;;;;149.65;110.43;;;;;;;8.06;87.55;98098.97;10372637;28;20067;-58
2022/01/01 16:09:02;;;;;;;131.73;95.97;;;;;;;7.89;87.24;98092.66;10375869;28;20068;-59
2022/01/01 16:14:03;;;;;;;125.30;93.93;;;;;;;7.76;87.89;98090.78;10374279;28;20075;-58
2022/01/01 16:19:07;;;;;;;152.30;108.75;;;;;;;7.62;87.44;98091.41;10375683;28;20060;-57
2022/01/01 16:24:07;;;;;;;179.43;128.50;;;;;;;7.46;88.15;98110.06;10375574;28;20835;-58
2022/01/01 16:29:10;;;;;;;277.27;211.30;;;;;;;7.33;88.14;98141.66;10375203;28;20179;-57
2022/01/01 16:34:09;;;;;;;287.15;216.38;;;;;;;7.24;88.24;98156.13;10371340;28;20460;-56
2022/01/01 16:39:08;;;;;;;;;;;;;;;7.22;88.35;98172.44;10374680;28;20472;-57
2022/01/01 16:44:18;;;;;;;178.88;134.20;;;;;;;7.14;88.58;98180.00;10375697;28;20429;-56
2022/01/01 16:49:22;;;;;;;203.80;146.00;;;;;;;7.10;88.76;98185.97;10374594;28;20076;-56
2022/01/01 16:54:21;;;;;;;182.07;132.38;;;;;;;7.09;89.05;98196.25;10372563;28;20080;-56
2022/01/01 16:59:23;;;;;;;174.85;132.65;;;;;;;7.09;88.76;98199.69;10375567;28;20044;-56
2022/01/01 17:04:30;;;;;;;193.40;142.57;;;;;;;7.10;89.04;98196.31;10370337;28;20072;-56
2022/01/01 17:09:30;;;;;;;209.77;154.68;;;;;;;7.10;89.29;98206.63;10370938;28;20056;-56
2022/01/01 17:14:29;;;;;;;215.65;157.27;;;;;;;7.01;89.18;98199.56;10372597;28;20568;-56
2022/01/01 17:19:54;;;;;;;181.77;129.63;;;;;;;6.97;89.17;98214.94;10373751;28;20061;-56
2022/01/01 17:25:09;;;;;;;181.43;134.20;;;;;;;6.91;88.51;98223.41;10371322;28;20052;-59
2022/01/01 17:30:09;;;;;;;169.73;126.85;;;;;;;6.83;88.85;98231.00;10372167;28;20519;-57
2022/01/01 17:40:14;;;;;;;169.57;125.05;;;;;;;6.83;90.03;98254.22;10369890;28;20500;-56
2022/01/01 17:45:17;;;;;;;146.27;109.47;;;;;;;6.93;89.75;98250.13;10371662;28;20072;-56
2022/01/01 17:50:21;;;;;;;142.10;106.22;;;;;;;6.98;89.22;98255.38;10371596;28;20056;-56
2022/01/01 17:55:21;;;;;;;122.05;94.55;;;;;;;7.00;89.05;98253.69;10372814;28;20075;-56
2022/01/01 18:00:20;;;;;;;126.38;95.65;;;;;;;7.02;89.46;98258.06;10373718;28;20122;-57
2022/01/01 18:05:19;;;;;;;141.98;109.28;;;;;;;7.08;89.05;98270.25;10369412;28;20013;-57
2022/01/01 18:10:26;;;;;;;144.95;110.82;;;;;;;7.17;89.41;98274.69;10372574;28;20126;-56
2022/01/01 18:15:25;;;;;;;146.20;110.35;;;;;;;7.13;89.59;98284.09;10373624;28;20543;-56
2022/01/01 18:20:27;;;;;;;144.23;106.60;;;;;;;7.12;89.36;98290.09;10373501;28;20076;-56
2022/01/01 18:25:34;;;;;;;146.02;102.28;;;;;;;7.11;88.42;98295.22;10373281;28;20068;-56
2022/01/01 18:30:35;;;;;;;141.85;102.72;;;;;;;7.07;88.80;98308.91;10374020;28;20073;-56
2022/01/01 18:35:34;;;;;;;155.00;113.43;;;;;;;7.00;89.00;98316.50;10367545;28;20061;-56
2022/01/01 18:40:33;;;;;;;108.80;79.53;;;;;;;6.76;89.42;98303.06;10372860;28;20069;-56
2022/01/01 18:45:32;;;;;;;77.80;60.22;;;;;;;6.89;88.97;98294.78;10373527;28;20029;-56
2022/01/01 18:50:32;;;;;;;46.78;37.05;;;;;;;6.97;89.34;98307.84;10372969;28;20082;-58
2022/01/01 18:55:33;;;;;;;74.53;53.35;;;;;;;6.97;89.11;98302.69;10373284;28;20065;-57
2022/01/01 19:00:53;;;;;;;91.20;68.43;;;;;;;6.77;89.69;98321.16;10377201;28;20424;-58
2022/01/01 19:05:56;;;;;;;91.57;72.10;;;;;;;6.72;89.23;98320.16;10374838;28;20064;-56
2022/01/01 19:10:55;;;;;;;142.65;109.85;;;;;;;6.59;89.28;98310.41;10378098;28;20118;-56
2022/01/01 19:15:54;;;;;;;205.85;146.40;;;;;;;6.50;89.58;98328.25;10380032;28;20068;-56
2022/01/01 19:20:54;;;;;;;242.80;177.93;;;;;;;6.43;89.50;98331.50;10379575;28;20065;-56
2022/01/01 19:25:54;;;;;;;249.02;179.77;;;;;;;6.38;89.39;98328.81;10379465;28;20083;-56
2022/01/01 19:30:58;;;;;;;246.70;185.43;;;;;;;6.35;89.31;98320.97;10379129;28;20081;-56
2022/01/01 19:35:58;;;;;;;240.95;176.98;;;;;;;6.30;89.64;98315.72;10375049;28;20060;-56
2022/01/01 19:41:05;;;;;;;295.70;216.93;;;;;;;6.13;89.74;98315.28;10378264;28;20052;-56
2022/01/01 19:46:06;;;;;;;324.58;246.88;;;;;;;6.05;89.81;98323.69;10368166;28;20095;-56
2022/01/01 19:51:05;;;;;;;365.58;273.52;;;;;;;5.89;89.44;98317.25;10378278;28;20060;-56
2022/01/01 19:56:04;;;;;;;398.98;291.75;;;;;;;5.74;89.84;98321.16;10378445;28;20087;-56
2022/01/01 20:01:03;;;;;;;;;;;;;;;5.78;90.32;98345.28;10378830;28;20063;-56
2022/01/01 20:06:02;;;;;;;419.00;297.13;;;;;;;5.60;90.77;98334.47;10373360;28;19959;-56
2022/01/01 20:11:01;;;;;;;404.48;290.02;;;;;;;5.74;91.11;98348.59;10376688;28;20496;-58
2022/01/01 20:16:00;;;;;;;430.38;305.98;;;;;;;5.75;90.76;98347.78;10377493;28;20869;-56
2022/01/01 20:21:00;;;;;;;383.70;279.30;;;;;;;5.55;90.62;98324.94;10377165;28;20794;-56
2022/01/01 20:25:58;;;;;;;356.40;258.73;;;;;;;5.70;90.56;98355.38;10375619;28;20060;-57
2022/01/01 20:30:57;;;;;;;357.85;259.20;;;;;;;5.66;90.46;98365.53;10376061;28;20049;-58
2022/01/01 20:35:56;;;;;;;374.48;269.48;;;;;;;5.59;90.00;98358.47;10377032;28;20033;-58
2022/01/01 20:40:55;;;;;;;379.13;269.60;;;;;;;5.59;90.50;98361.91;10372645;28;20032;-59
2022/01/01 20:45:55;;;;;;;359.42;249.15;;;;;;;5.52;89.73;98358.28;10376529;28;20021;-57
2022/01/01 20:50:54;;;;;;;350.30;256.10;;;;;;;5.39;90.35;98363.03;10376125;28;20053;-57
2022/01/01 20:55:53;;;;;;;346.77;254.57;;;;;;;5.19;90.79;98377.91;10376043;28;20032;-57
2022/01/01 21:00:53;;;;;;;350.05;259.92;;;;;;;5.15;91.46;98378.63;10376561;28;20099;-58
2022/01/01 21:05:58;;;;;;;316.10;231.90;;;;;;;5.28;91.96;98380.75;10374818;28;20472;-59
2022/01/01 21:10:57;;;;;;;314.30;234.20;;;;;;;5.33;91.64;98395.50;10369994;28;20080;-59
2022/01/01 21:15:56;;;;;;;248.82;175.75;;;;;;;5.42;91.72;98394.03;10374870;28;20068;-56
2022/01/01 21:20:56;;;;;;;173.45;119.75;;;;;;;5.49;91.80;98390.81;10375271;28;20039;-59
2022/01/01 21:25:55;;;;;;;152.00;100.22;;;;;;;5.46;91.29;98375.25;10374704;28;20504;-56
2022/01/01 21:30:54;;;;;;;;;;;;;;;5.62;91.18;98402.31;10374964;28;20523;-56
2022/01/01 21:35:53;;;;;;;181.32;124.32;;;;;;;5.64;91.52;98403.25;10374298;28;20884;-56
2022/01/01 21:40:52;;;;;;;268.13;191.00;;;;;;;5.46;91.77;98413.88;10369450;28;20036;-56
2022/01/01 21:45:52;;;;;;;269.85;186.35;;;;;;;5.34;92.37;98398.94;10372348;28;20052;-57
2022/01/01 21:50:50;;;;;;;;;;;;;;;5.42;92.31;98400.06;10372145;28;20068;-56
2022/01/01 21:55:49;;;;;;;237.27;146.15;;;;;;;5.46;91.72;98401.91;10371558;28;19919;-56
2022/01/01 22:00:48;;;;;;;236.20;152.07;;;;;;;5.50;91.65;98403.72;10371786;28;20029;-59
2022/01/01 22:05:49;;;;;;;236.57;156.07;;;;;;;5.55;91.95;98407.31;10372211;28;20072;-59
2022/01/01 22:10:48;;;;;;;217.07;141.93;;;;;;;5.50;91.97;98383.13;10369623;28;20080;-56
2022/01/01 22:15:46;;;;;;;236.63;160.88;;;;;;;5.65;91.43;98413.59;10373991;28;20064;-56
2022/01/01 22:20:45;;;;;;;281.52;199.23;;;;;;;5.53;91.49;98393.53;10374041;28;20064;-56
2022/01/01 22:25:45;;;;;;;269.52;192.55;;;;;;;5.47;90.71;98393.34;10373935;28;20531;-56
2022/01/01 22:30:43;;;;;;;252.35;173.73;;;;;;;5.39;91.60;98383.63;10373791;28;20540;-56
2022/01/01 22:35:43;;;;;;;225.27;155.07;;;;;;;5.50;91.32;98403.72;10375356;28;20455;-56
2022/01/01 22:40:42;;;;;;;240.60;160.07;;;;;;;5.43;91.52;98395.78;10373864;28;20052;-57
2022/01/01 22:45:41;;;;;;;291.05;221.27;;;;;;;5.39;91.60;98410.25;10379086;28;20060;-57
2022/01/01 22:50:40;;;;;;;241.88;167.70;;;;;;;5.37;91.44;98427.34;10378617;28;20040;-56
2022/01/01 22:55:41;;;;;;;262.73;179.82;;;;;;;5.19;91.29;98401.06;10377063;28;20032;-57